createdAt,value
2019-03-26T00:02:14.118Z,28.60
2019-03-26T00:04:40.970Z,28.00
2019-03-26T00:07:07.706Z,27.40
2019-03-26T00:09:34.432Z,27.40
2019-03-26T00:12:01.197Z,26.80
2019-03-26T00:14:27.926Z,25.90
2019-03-26T00:16:54.825Z,26.80
2019-03-26T00:19:21.571Z,26.00
2019-03-26T00:21:48.303Z,26.10
2019-03-26T00:24:15.092Z,25.50
2019-03-26T00:26:41.826Z,24.80
2019-03-26T00:29:08.566Z,25.10
2019-03-26T00:31:35.339Z,26.00
2019-03-26T00:34:02.098Z,27.50
2019-03-26T00:36:28.874Z,28.30
2019-03-26T00:38:55.595Z,27.50
2019-03-26T00:41:22.330Z,26.60
2019-03-26T00:43:49.226Z,26.50
2019-03-26T00:46:15.948Z,26.80
2019-03-26T00:48:42.675Z,27.00
2019-03-26T00:51:09.483Z,26.60
2019-03-26T00:53:36.314Z,27.00
2019-03-26T00:56:03.064Z,27.50
2019-03-26T00:58:29.856Z,28.20
2019-03-26T01:00:56.597Z,27.50
2019-03-26T01:03:23.320Z,27.40
2019-03-26T01:05:50.226Z,27.60
2019-03-26T01:08:16.998Z,29.50
2019-03-26T01:10:43.783Z,29.50
2019-03-26T01:13:10.514Z,29.50
2019-03-26T01:15:37.439Z,29.70
2019-03-26T01:18:04.428Z,29.70
2019-03-26T01:20:31.184Z,30.40
2019-03-26T01:22:58.118Z,30.90
2019-03-26T01:25:24.850Z,30.90
2019-03-26T01:27:51.593Z,29.30
2019-03-26T01:30:18.369Z,29.80
2019-03-26T01:32:45.114Z,30.20
2019-03-26T01:35:11.999Z,30.20
2019-03-26T01:37:38.759Z,29.50
2019-03-26T01:40:05.588Z,30.00
2019-03-26T01:42:32.364Z,29.60
2019-03-26T01:44:59.072Z,29.90
2019-03-26T01:47:25.871Z,30.00
2019-03-26T01:49:52.612Z,30.40
2019-03-26T01:52:19.365Z,30.50
2019-03-26T01:54:46.145Z,30.90
2019-03-26T01:57:12.881Z,30.90
2019-03-26T01:59:39.605Z,31.30
2019-03-26T02:02:06.397Z,30.20
2019-03-26T02:04:33.128Z,30.20
2019-03-26T02:06:59.942Z,31.80
2019-03-26T02:09:26.809Z,31.70
2019-03-26T02:11:53.524Z,32.70
2019-03-26T02:14:20.272Z,32.20
2019-03-26T02:16:47.054Z,32.70
2019-03-26T02:19:13.776Z,34.70
2019-03-26T02:21:40.503Z,33.90
2019-03-26T02:24:07.301Z,33.30
2019-03-26T02:26:34.021Z,33.70
2019-03-26T02:29:00.756Z,32.60
2019-03-26T02:31:27.550Z,33.60
2019-03-26T02:33:54.318Z,34.20
2019-03-26T02:36:21.055Z,33.20
2019-03-26T02:38:47.906Z,34.50
2019-03-26T02:41:14.642Z,33.80
2019-03-26T02:43:41.361Z,34.10
2019-03-26T02:46:08.151Z,34.30
2019-03-26T02:48:34.866Z,33.40
2019-03-26T02:51:01.688Z,32.70
2019-03-26T02:53:28.436Z,34.50
2019-03-26T02:55:55.179Z,35.00
2019-03-26T02:58:22.031Z,35.10
2019-03-26T03:00:48.775Z,35.50
2019-03-26T03:03:15.492Z,35.80
2019-03-26T03:05:42.286Z,37.40
2019-03-26T03:08:09.100Z,37.50
2019-03-26T03:10:35.854Z,37.60
2019-03-26T03:13:02.724Z,38.20
2019-03-26T03:15:29.467Z,39.20
2019-03-26T03:17:56.244Z,39.70
2019-03-26T03:20:22.994Z,39.70
2019-03-26T03:22:49.753Z,39.20
2019-03-26T03:25:16.529Z,39.90
2019-03-26T03:27:43.276Z,39.50
2019-03-26T03:30:10.831Z,39.80
2019-03-26T03:32:37.613Z,40.80
2019-03-26T03:35:06.239Z,40.60
2019-03-26T03:37:33.000Z,40.50
2019-03-26T03:39:59.807Z,40.00
2019-03-26T03:42:26.541Z,40.30
2019-03-26T03:44:53.293Z,41.10
2019-03-26T03:47:20.690Z,41.30
2019-03-26T03:49:47.646Z,42.10
2019-03-26T03:52:16.282Z,42.60
2019-03-26T03:54:43.748Z,42.70
2019-03-26T03:57:14.383Z,42.10
2019-03-26T03:59:44.120Z,41.00
2019-03-26T04:02:10.925Z,43.20
2019-03-26T04:04:37.654Z,44.30
2019-03-26T04:07:04.386Z,44.20
2019-03-26T04:09:31.198Z,44.00
2019-03-26T04:11:57.942Z,43.50
2019-03-26T04:14:24.862Z,43.50
2019-03-26T04:16:51.577Z,43.20
2019-03-26T04:19:18.307Z,43.50
2019-03-26T04:21:45.181Z,43.50
2019-03-26T04:24:11.927Z,43.50
2019-03-26T04:26:38.688Z,43.90
2019-03-26T04:29:05.470Z,44.10
2019-03-26T04:31:32.215Z,43.70
2019-03-26T04:33:59.028Z,43.40
2019-03-26T04:36:26.521Z,44.10
2019-03-26T04:38:53.498Z,44.00
2019-03-26T04:41:20.362Z,43.40
2019-03-26T04:43:47.121Z,43.30
2019-03-26T04:46:13.949Z,44.80
2019-03-26T04:48:40.715Z,44.50
2019-03-26T04:51:07.463Z,44.50
2019-03-26T04:53:34.394Z,44.50
2019-03-26T04:56:01.119Z,44.40
2019-03-26T04:58:27.857Z,44.50
2019-03-26T05:00:54.740Z,45.20
2019-03-26T05:03:21.471Z,45.60
2019-03-26T05:05:48.219Z,45.40
2019-03-26T05:08:15.021Z,45.90
2019-03-26T05:10:41.823Z,45.40
2019-03-26T05:13:08.560Z,44.90
2019-03-26T05:15:35.347Z,44.60
2019-03-26T05:18:02.068Z,45.20
2019-03-26T05:20:28.851Z,45.10
2019-03-26T05:22:55.583Z,43.90
2019-03-26T05:25:22.329Z,45.10
2019-03-26T05:27:49.120Z,45.40
2019-03-26T05:30:15.843Z,45.10
2019-03-26T05:32:42.654Z,45.90
2019-03-26T05:35:10.800Z,45.70
2019-03-26T05:37:37.527Z,45.20
2019-03-26T05:40:07.231Z,43.60
2019-03-26T05:42:34.066Z,42.30
2019-03-26T05:45:00.787Z,43.30
2019-03-26T05:47:27.710Z,43.80
2019-03-26T05:49:54.540Z,44.90
2019-03-26T05:52:21.269Z,44.50
2019-03-26T05:54:48.046Z,43.60
2019-03-26T05:57:14.767Z,44.10
2019-03-26T05:59:41.629Z,44.30
2019-03-26T06:02:14.164Z,41.80
2019-03-26T06:04:36.890Z,41.40
2019-03-26T06:07:04.994Z,41.20
2019-03-26T06:09:32.225Z,41.50
2019-03-26T06:11:59.060Z,41.40
2019-03-26T06:14:25.803Z,41.90
2019-03-26T06:16:52.516Z,42.50
2019-03-26T06:19:19.309Z,42.10
2019-03-26T06:21:46.055Z,41.70
2019-03-26T06:24:12.786Z,41.00
2019-03-26T06:26:39.568Z,41.50
2019-03-26T06:29:06.301Z,41.50
2019-03-26T06:31:33.102Z,40.30
2019-03-26T06:33:59.850Z,40.00
2019-03-26T06:36:26.635Z,39.50
2019-03-26T06:38:53.497Z,39.90
2019-03-26T06:41:20.251Z,39.70
2019-03-26T06:43:46.999Z,40.30
2019-03-26T06:46:13.808Z,39.30
2019-03-26T06:48:40.521Z,39.00
2019-03-26T06:51:07.250Z,37.50
2019-03-26T06:53:34.058Z,37.60
2019-03-26T06:56:00.780Z,37.40
2019-03-26T06:58:27.656Z,35.20
2019-03-26T07:00:54.406Z,33.10
2019-03-26T07:03:21.136Z,29.90
2019-03-26T07:05:47.948Z,29.60
2019-03-26T07:08:14.689Z,29.70
2019-03-26T07:10:41.443Z,30.00
2019-03-26T07:13:08.468Z,30.30
2019-03-26T07:15:35.208Z,28.90
2019-03-26T07:18:02.056Z,29.00
2019-03-26T07:20:28.854Z,28.50
2019-03-26T07:22:55.597Z,29.80
2019-03-26T07:25:22.343Z,29.20
2019-03-26T07:27:49.143Z,29.10
2019-03-26T07:30:39.588Z,29.60
2019-03-26T07:33:06.597Z,29.70
2019-03-26T07:35:33.321Z,31.10
2019-03-26T07:38:00.075Z,30.60
2019-03-26T07:40:26.958Z,30.00
2019-03-26T07:42:53.718Z,28.70
2019-03-26T07:45:20.450Z,28.10
2019-03-26T07:47:47.231Z,27.20
2019-03-26T07:50:14.150Z,29.00
2019-03-26T07:52:40.941Z,27.50
2019-03-26T07:55:08.073Z,27.00
2019-03-26T07:57:34.922Z,28.90
2019-03-26T08:00:05.125Z,28.90
2019-03-26T08:02:31.884Z,26.80
2019-03-26T08:04:58.715Z,26.90
2019-03-26T08:07:25.479Z,27.90
2019-03-26T08:09:52.227Z,28.20
2019-03-26T08:12:19.084Z,28.30
2019-03-26T08:14:46.100Z,28.60
2019-03-26T08:17:12.907Z,28.30
2019-03-26T08:19:39.701Z,26.80
2019-03-26T08:22:06.440Z,27.00
2019-03-26T08:24:33.243Z,26.50
2019-03-26T08:26:59.972Z,26.70
2019-03-26T08:29:26.789Z,26.70
2019-03-26T08:31:53.594Z,26.90
2019-03-26T08:34:20.344Z,26.50
2019-03-26T08:36:47.098Z,26.70
2019-03-26T08:39:13.885Z,25.80
2019-03-26T08:41:40.646Z,24.70
2019-03-26T08:44:07.517Z,25.60
2019-03-26T08:46:34.268Z,25.80
2019-03-26T08:49:00.994Z,25.70
2019-03-26T08:51:27.834Z,25.80
2019-03-26T08:53:54.573Z,23.60
2019-03-26T08:56:21.315Z,22.90
2019-03-26T08:58:48.202Z,23.40
2019-03-26T09:01:14.953Z,23.50
2019-03-26T09:03:41.798Z,23.80
2019-03-26T09:06:08.622Z,24.60
2019-03-26T09:08:35.353Z,24.50
2019-03-26T09:11:02.205Z,24.70
2019-03-26T09:13:29.025Z,24.10
2019-03-26T09:15:55.805Z,23.50
2019-03-26T09:18:22.577Z,22.40
2019-03-26T09:20:49.380Z,23.80
2019-03-26T09:23:16.141Z,23.00
2019-03-26T09:25:42.883Z,23.90
2019-03-26T09:28:09.659Z,23.40
2019-03-26T09:30:56.128Z,22.20
2019-03-26T09:33:23.009Z,22.90
2019-03-26T09:35:49.749Z,23.10
2019-03-26T09:38:16.495Z,24.00
2019-03-26T09:40:43.347Z,23.80
2019-03-26T09:43:10.088Z,21.10
2019-03-26T09:45:36.834Z,22.20
2019-03-26T09:48:03.733Z,21.90
2019-03-26T09:50:34.768Z,21.40
2019-03-26T09:53:01.860Z,21.40
2019-03-26T09:55:28.712Z,21.80
2019-03-26T09:57:55.481Z,21.30
2019-03-26T10:00:22.265Z,22.50
2019-03-26T10:02:49.023Z,22.30
2019-03-26T10:05:15.765Z,22.00
2019-03-26T10:07:42.565Z,22.80
2019-03-26T10:10:10.931Z,21.70
2019-03-26T10:12:37.662Z,19.40
2019-03-26T10:15:06.912Z,19.00
2019-03-26T10:17:33.657Z,18.90
2019-03-26T10:20:00.395Z,20.20
2019-03-26T10:22:27.160Z,19.60
2019-03-26T10:24:53.882Z,20.70
2019-03-26T10:27:20.769Z,19.90
2019-03-26T10:29:47.531Z,18.80
2019-03-26T10:32:14.359Z,19.30
2019-03-26T10:34:41.167Z,20.20
2019-03-26T10:37:07.915Z,19.50
2019-03-26T10:39:34.720Z,18.10
2019-03-26T10:42:01.465Z,17.80
2019-03-26T10:44:28.190Z,16.90
2019-03-26T10:46:54.939Z,16.50
2019-03-26T10:49:21.746Z,16.90
2019-03-26T10:51:48.471Z,16.80
2019-03-26T10:54:15.198Z,17.30
2019-03-26T10:56:42.022Z,14.80
2019-03-26T10:59:08.737Z,13.10
2019-03-26T11:01:35.493Z,14.10
2019-03-26T11:04:02.592Z,14.70
2019-03-26T11:06:29.341Z,13.50
2019-03-26T11:08:56.068Z,14.10
2019-03-26T11:11:22.970Z,13.60
2019-03-26T11:13:49.706Z,12.90
2019-03-26T11:16:16.596Z,12.00
2019-03-26T11:18:43.333Z,12.00
2019-03-26T11:21:10.180Z,12.70
2019-03-26T11:23:36.980Z,12.20
2019-03-26T11:26:03.992Z,13.20
2019-03-26T11:28:30.871Z,14.60
2019-03-26T11:30:57.645Z,12.30
2019-03-26T11:33:24.389Z,13.40
2019-03-26T11:35:51.194Z,12.40
2019-03-26T11:38:18.651Z,10.80
2019-03-26T11:40:45.493Z,11.80
2019-03-26T11:43:12.304Z,11.80
2019-03-26T11:45:40.433Z,12.30
2019-03-26T11:48:07.392Z,11.80
2019-03-26T11:50:34.179Z,11.10
2019-03-26T11:53:00.942Z,11.30
2019-03-26T11:55:27.765Z,11.00
2019-03-26T11:57:54.505Z,11.50
2019-03-26T12:00:21.536Z,10.80
2019-03-26T12:02:48.377Z,11.90
2019-03-26T12:05:15.442Z,10.10
2019-03-26T12:07:43.035Z,11.50
2019-03-26T12:10:11.977Z,12.00
2019-03-26T12:12:38.734Z,10.00
2019-03-26T12:15:06.915Z,11.20
2019-03-26T12:17:33.708Z,10.30
2019-03-26T12:20:00.436Z,11.10
2019-03-26T12:22:27.297Z,10.40
2019-03-26T12:24:54.045Z,10.60
2019-03-26T12:27:20.777Z,11.90
2019-03-26T12:29:47.588Z,13.30
2019-03-26T12:32:14.318Z,11.40
2019-03-26T12:34:41.079Z,10.50
2019-03-26T12:37:07.864Z,10.30
2019-03-26T12:39:34.624Z,11.10
2019-03-26T12:42:01.523Z,11.60
2019-03-26T12:44:28.253Z,10.70
2019-03-26T12:46:58.144Z,11.30
2019-03-26T12:49:23.685Z,12.10
2019-03-26T12:51:50.449Z,9.30
2019-03-26T12:54:17.189Z,11.10
2019-03-26T12:56:44.024Z,9.20
2019-03-26T12:59:10.781Z,9.50
2019-03-26T13:01:37.536Z,11.40
2019-03-26T13:04:12.606Z,8.50
2019-03-26T13:06:33.387Z,8.40
2019-03-26T13:09:00.459Z,9.60
2019-03-26T13:11:27.592Z,9.10
2019-03-26T13:13:54.535Z,9.70
2019-03-26T13:16:21.496Z,10.50
2019-03-26T13:18:48.216Z,9.90
2019-03-26T13:21:14.971Z,8.00
2019-03-26T13:23:41.868Z,10.40
2019-03-26T13:26:08.994Z,11.10
2019-03-26T13:28:35.923Z,10.70
2019-03-26T13:31:02.935Z,10.30
2019-03-26T13:33:29.895Z,8.70
2019-03-26T13:35:56.773Z,8.50
2019-03-26T13:38:23.571Z,8.80
2019-03-26T13:40:50.330Z,9.50
2019-03-26T13:43:17.138Z,9.60
2019-03-26T13:45:43.959Z,11.20
2019-03-26T13:48:11.883Z,9.40
2019-03-26T13:50:38.643Z,9.00
2019-03-26T13:53:05.378Z,11.30
2019-03-26T13:55:32.212Z,9.30
2019-03-26T13:57:59.001Z,9.40
2019-03-26T14:00:37.674Z,11.50
2019-03-26T14:03:04.526Z,10.20
2019-03-26T14:05:31.251Z,9.10
2019-03-26T14:07:58.155Z,10.20
2019-03-26T14:10:25.310Z,10.50
2019-03-26T14:12:52.075Z,8.90
2019-03-26T14:15:18.894Z,8.20
2019-03-26T14:17:47.094Z,9.20
2019-03-26T14:20:15.232Z,10.30
2019-03-26T14:22:41.972Z,12.60
2019-03-26T14:25:08.917Z,12.40
2019-03-26T14:27:35.792Z,10.90
2019-03-26T14:30:05.325Z,9.00
2019-03-26T14:32:32.181Z,10.00
2019-03-26T14:34:59.019Z,11.50
2019-03-26T14:37:25.823Z,13.10
2019-03-26T14:39:54.479Z,10.70
2019-03-26T14:42:21.167Z,8.20
2019-03-26T14:44:50.067Z,9.00
2019-03-26T14:47:16.500Z,8.30
2019-03-26T14:49:43.258Z,8.70
2019-03-26T14:52:10.150Z,9.20
2019-03-26T14:54:36.895Z,9.10
2019-03-26T14:57:03.656Z,8.50
2019-03-26T14:59:30.453Z,8.40
2019-03-26T15:01:57.261Z,8.20
2019-03-26T15:04:23.999Z,9.10
2019-03-26T15:06:50.960Z,12.90
2019-03-26T15:09:17.978Z,12.20
2019-03-26T15:11:45.177Z,11.20
2019-03-26T15:14:11.952Z,10.60
2019-03-26T15:16:40.487Z,13.00
2019-03-26T15:19:08.778Z,10.90
2019-03-26T15:21:35.707Z,9.60
2019-03-26T15:24:02.422Z,9.80
2019-03-26T15:26:29.219Z,13.60
2019-03-26T15:28:55.993Z,11.80
2019-03-26T15:31:24.058Z,12.90
2019-03-26T15:33:50.839Z,9.60
2019-03-26T15:36:20.028Z,13.30
2019-03-26T15:38:46.869Z,13.30
2019-03-26T15:41:21.488Z,17.10
2019-03-26T15:43:44.518Z,13.10
2019-03-26T15:46:11.294Z,15.50
2019-03-26T15:48:38.031Z,16.20
2019-03-26T15:51:04.900Z,13.00
2019-03-26T15:53:31.621Z,12.40
2019-03-26T15:55:58.368Z,9.20
2019-03-26T15:58:25.147Z,9.40
2019-03-26T16:00:52.195Z,9.20
2019-03-26T16:03:22.583Z,9.20
2019-03-26T16:05:49.491Z,10.10
2019-03-26T16:08:16.251Z,9.10
2019-03-26T16:10:42.983Z,10.50
2019-03-26T16:13:09.785Z,16.60
2019-03-26T16:15:44.033Z,16.10
2019-03-26T16:18:07.326Z,15.10
2019-03-26T16:20:39.656Z,19.40
2019-03-26T16:23:06.184Z,18.30
2019-03-26T16:25:33.093Z,18.10
2019-03-26T16:27:59.829Z,17.00
2019-03-26T16:30:26.573Z,17.30
2019-03-26T16:32:53.380Z,17.60
2019-03-26T16:35:20.168Z,18.50
2019-03-26T16:37:46.941Z,18.70
2019-03-26T16:40:13.777Z,19.00
2019-03-26T16:42:40.610Z,19.40
2019-03-26T16:45:07.962Z,19.40
2019-03-26T16:47:34.731Z,19.40
2019-03-26T16:50:03.823Z,20.40
2019-03-26T16:52:31.047Z,19.40
2019-03-26T16:54:57.805Z,20.40
2019-03-26T16:57:24.614Z,20.90
2019-03-26T16:59:51.414Z,21.30
2019-03-26T17:02:18.163Z,21.00
2019-03-26T17:04:46.798Z,21.10
2019-03-26T17:07:13.528Z,21.40
2019-03-26T17:09:40.260Z,21.30
2019-03-26T17:12:07.068Z,21.20
2019-03-26T17:14:33.817Z,21.80
2019-03-26T17:17:01.801Z,21.50
2019-03-26T17:19:28.686Z,22.20
2019-03-26T17:21:55.790Z,21.90
2019-03-26T17:24:22.508Z,21.80
2019-03-26T17:26:49.291Z,23.00
2019-03-26T17:29:16.108Z,23.20
2019-03-26T17:31:42.959Z,23.30
2019-03-26T17:34:10.275Z,23.90
2019-03-26T17:36:37.044Z,23.70
2019-03-26T17:39:07.357Z,23.60
2019-03-26T17:41:36.226Z,24.20
2019-03-26T17:44:04.525Z,24.60
2019-03-26T17:46:31.287Z,24.40
2019-03-26T17:48:58.021Z,24.30
2019-03-26T17:51:25.027Z,24.40
2019-03-26T17:53:52.272Z,24.60
2019-03-26T17:56:19.009Z,24.20
2019-03-26T17:58:46.540Z,23.90
2019-03-26T18:01:13.447Z,24.60
2019-03-26T18:03:48.756Z,25.10
2019-03-26T18:06:15.541Z,24.70
2019-03-26T18:08:42.282Z,25.50
2019-03-26T18:11:09.295Z,25.00
2019-03-26T18:13:36.134Z,25.40
2019-03-26T18:16:03.002Z,25.20
2019-03-26T18:18:29.725Z,25.20
2019-03-26T18:20:56.530Z,25.70
2019-03-26T18:23:23.316Z,25.70
2019-03-26T18:25:50.068Z,25.60
2019-03-26T18:28:16.969Z,26.10
2019-03-26T18:30:43.700Z,26.20
2019-03-26T18:33:10.462Z,26.20
2019-03-26T18:35:37.230Z,26.50
2019-03-26T18:38:03.987Z,26.80
2019-03-26T18:40:30.739Z,27.30
2019-03-26T18:42:57.518Z,28.40
2019-03-26T18:45:24.284Z,27.50
2019-03-26T18:47:51.030Z,28.60
2019-03-26T18:50:18.254Z,28.80
2019-03-26T18:52:45.008Z,28.10
2019-03-26T18:55:11.854Z,28.50
2019-03-26T18:57:38.688Z,28.70
2019-03-26T19:00:12.357Z,29.60
2019-03-26T19:02:39.090Z,29.90
2019-03-26T19:05:07.680Z,30.00
2019-03-26T19:07:34.418Z,31.80
2019-03-26T19:10:01.217Z,31.60
2019-03-26T19:12:27.987Z,30.80
2019-03-26T19:14:54.735Z,32.30
2019-03-26T19:17:21.551Z,32.20
2019-03-26T19:19:48.282Z,33.80
2019-03-26T19:22:15.017Z,33.50
2019-03-26T19:24:41.915Z,33.50
2019-03-26T19:27:08.653Z,33.10
2019-03-26T19:29:35.387Z,33.40
2019-03-26T19:32:02.189Z,32.80
2019-03-26T19:34:28.949Z,33.50
2019-03-26T19:36:55.691Z,32.20
2019-03-26T19:39:22.462Z,32.10
2019-03-26T19:41:49.232Z,33.40
2019-03-26T19:44:16.515Z,33.60
2019-03-26T19:46:43.359Z,32.70
2019-03-26T19:49:11.983Z,31.90
2019-03-26T19:51:38.779Z,31.90
2019-03-26T19:54:05.529Z,31.70
2019-03-26T19:56:32.330Z,31.90
2019-03-26T19:58:59.069Z,32.30
2019-03-26T20:01:25.899Z,32.80
2019-03-26T20:03:52.676Z,33.50
2019-03-26T20:06:19.429Z,32.20
2019-03-26T20:08:46.161Z,33.00
2019-03-26T20:11:15.350Z,33.50
2019-03-26T20:13:41.510Z,33.30
2019-03-26T20:16:08.303Z,33.90
2019-03-26T20:18:35.088Z,35.20
2019-03-26T20:21:01.821Z,34.30
2019-03-26T20:23:28.614Z,35.20
2019-03-26T20:25:55.387Z,35.70
2019-03-26T20:28:22.169Z,36.00
2019-03-26T20:30:48.905Z,36.90
2019-03-26T20:33:15.633Z,36.90
2019-03-26T20:35:42.428Z,36.90
2019-03-26T20:38:09.178Z,37.10
2019-03-26T20:40:35.909Z,37.80
2019-03-26T20:43:02.698Z,38.00
2019-03-26T20:45:29.410Z,38.60
2019-03-26T20:47:56.128Z,38.20
2019-03-26T20:50:23.121Z,38.10
2019-03-26T20:52:49.843Z,38.00
2019-03-26T20:55:28.324Z,38.30
2019-03-26T20:57:55.175Z,38.90
2019-03-26T21:00:38.291Z,39.30
2019-03-26T21:03:05.156Z,40.10
2019-03-26T21:05:31.902Z,40.50
2019-03-26T21:07:58.685Z,40.60
2019-03-26T21:10:25.439Z,40.30
2019-03-26T21:12:52.178Z,41.30
2019-03-26T21:15:18.939Z,40.90
2019-03-26T21:17:45.672Z,41.30
2019-03-26T21:20:12.567Z,41.80
2019-03-26T21:22:39.351Z,42.30
2019-03-26T21:25:08.237Z,42.20
2019-03-26T21:27:35.029Z,41.60
2019-03-26T21:30:11.241Z,41.90
2019-03-26T21:32:32.333Z,42.00
2019-03-26T21:34:59.148Z,41.70
2019-03-26T21:37:25.908Z,41.60
2019-03-26T21:39:52.717Z,41.50
2019-03-26T21:42:19.485Z,41.30
2019-03-26T21:44:46.325Z,41.80
2019-03-26T21:47:32.916Z,42.10
2019-03-26T21:49:59.779Z,42.30
2019-03-26T21:52:26.524Z,42.20
2019-03-26T21:54:53.308Z,42.00
2019-03-26T21:57:20.104Z,42.00
2019-03-26T21:59:46.883Z,42.10
2019-03-26T22:02:13.621Z,42.30
2019-03-26T22:04:40.371Z,43.30
2019-03-26T22:07:07.201Z,43.10
2019-03-26T22:09:33.981Z,43.10
2019-03-26T22:12:00.715Z,42.60
2019-03-26T22:14:27.526Z,42.10
2019-03-26T22:16:54.292Z,42.60
2019-03-26T22:19:28.354Z,43.00
2019-03-26T22:21:49.623Z,43.10
2019-03-26T22:24:17.245Z,42.70
2019-03-26T22:26:44.239Z,42.70
2019-03-26T22:29:11.022Z,42.60
2019-03-26T22:31:37.769Z,42.60
2019-03-26T22:34:04.504Z,42.80
2019-03-26T22:36:31.315Z,43.20
2019-03-26T22:38:58.058Z,43.40
2019-03-26T22:41:24.797Z,43.80
2019-03-26T22:43:54.963Z,44.60
2019-03-26T22:46:20.422Z,43.80
2019-03-26T22:48:47.211Z,43.70
2019-03-26T22:51:14.012Z,44.50
2019-03-26T22:53:40.787Z,44.90
2019-03-26T22:56:07.585Z,45.30
2019-03-26T22:58:34.317Z,44.80
2019-03-26T23:01:01.155Z,45.00
2019-03-26T23:03:27.922Z,45.70
2019-03-26T23:05:54.660Z,45.50
2019-03-26T23:08:21.396Z,45.70
2019-03-26T23:10:48.199Z,46.10
2019-03-26T23:13:14.926Z,46.20
2019-03-26T23:15:41.682Z,46.00
2019-03-26T23:18:08.465Z,46.20
2019-03-26T23:20:35.216Z,46.70
2019-03-26T23:23:01.948Z,46.60
2019-03-26T23:25:28.740Z,46.80
2019-03-26T23:27:55.540Z,46.50
2019-03-26T23:30:22.314Z,46.80
2019-03-26T23:32:49.045Z,47.10
2019-03-26T23:35:15.778Z,47.70
2019-03-26T23:37:42.696Z,47.40
2019-03-26T23:40:11.432Z,48.00
2019-03-26T23:42:38.176Z,48.20
2019-03-26T23:45:07.582Z,47.60
2019-03-26T23:47:34.326Z,47.80
2019-03-26T23:50:01.080Z,48.20
2019-03-26T23:52:27.869Z,48.20
2019-03-26T23:54:54.606Z,49.10
2019-03-26T23:57:21.328Z,49.00
2019-03-26T23:59:48.125Z,49.20
